Flugplatz Tannheim

Für EDMT sind keine METAR/TAF Berichte vorhanden.
Es werden die Flugwettermeldungen vom Flugplatz Memmingen Allgau in 10 km Entfernung angezeigt.

Bericht für EDJA

vom 07.12. um 17:20 UTC

Wind 3 kt aus 110°

Sichtweite 10 km oder mehr

gute Sicht, keine Wolken < 5000 ft, keine CB, keine Wettererscheinungen (CAVOK)

Temperatur -2.0°C

Taupunkt -3.0°C

Luftfeuchtigkeit 93%

Luftdruck 1009 hPa

EDJA 071720Z 11003KT CAVOK M02/M03 Q1009

Prognose für EDJA

vom 07.12. um 17:00 UTC

Zwischen 18:00 UTC und 03:00 UTC

Wind 4 kt aus 140°

Sichtweite 10 km oder mehr

keine signifikanten Wettererscheinungen

keine Wolken

TAF EDJA 071700Z 0718/0803 14004KT CAVOK
Impressum